createdAt,value
2018-07-14T00:00:40.918Z,5.80
2018-07-14T00:05:43.037Z,5.77
2018-07-14T00:10:45.153Z,5.63
2018-07-14T00:15:47.272Z,6.00
2018-07-14T00:20:49.502Z,5.30
2018-07-14T00:25:57.352Z,5.80
2018-07-14T00:30:59.505Z,5.90
2018-07-14T00:36:01.686Z,5.80
2018-07-14T00:41:03.801Z,5.40
2018-07-14T00:46:05.910Z,5.83
2018-07-14T00:51:08.021Z,5.53
2018-07-14T00:56:10.143Z,4.90
2018-07-14T01:01:12.267Z,5.20
2018-07-14T01:06:14.365Z,5.63
2018-07-14T01:11:16.486Z,5.20
2018-07-14T01:16:18.596Z,5.10
2018-07-14T01:21:20.725Z,5.00
2018-07-14T01:26:22.877Z,5.37
2018-07-14T01:31:25.010Z,5.23
2018-07-14T01:36:27.136Z,5.70
2018-07-14T01:41:29.257Z,6.50
2018-07-14T01:46:31.374Z,7.13
2018-07-14T01:51:33.475Z,6.73
2018-07-14T01:56:35.613Z,7.10
2018-07-14T02:01:37.720Z,6.80
2018-07-14T02:06:39.837Z,7.07
2018-07-14T02:11:41.980Z,8.10
2018-07-14T02:16:44.098Z,8.70
2018-07-14T02:21:46.205Z,7.83
2018-07-14T02:26:48.337Z,7.60
2018-07-14T02:31:50.445Z,8.00
2018-07-14T02:36:52.591Z,7.70
2018-07-14T02:41:54.707Z,7.23
2018-07-14T02:46:56.841Z,7.27
2018-07-14T02:51:58.990Z,8.07
2018-07-14T02:57:01.103Z,7.43
2018-07-14T03:02:03.244Z,7.60
2018-07-14T03:07:05.386Z,6.17
2018-07-14T03:12:07.529Z,6.27
2018-07-14T03:17:09.643Z,6.70
2018-07-14T03:22:11.763Z,6.80
2018-07-14T03:27:13.886Z,6.43
2018-07-14T03:32:16.000Z,6.27
2018-07-14T03:37:18.093Z,6.80
2018-07-14T03:42:20.233Z,7.13
2018-07-14T03:47:22.353Z,8.70
2018-07-14T03:52:24.477Z,7.33
2018-07-14T03:57:26.588Z,8.23
2018-07-14T04:02:28.708Z,8.03
2018-07-14T04:07:30.829Z,8.37
2018-07-14T04:12:32.950Z,7.90
2018-07-14T04:17:35.062Z,8.37
2018-07-14T04:22:37.172Z,7.40
2018-07-14T04:27:39.266Z,7.30
2018-07-14T04:32:41.390Z,7.30
2018-07-14T04:37:43.510Z,8.47
2018-07-14T04:42:45.805Z,8.20
2018-07-14T04:47:47.937Z,9.07
2018-07-14T04:52:50.057Z,7.53
2018-07-14T04:57:52.161Z,7.23
2018-07-14T05:02:54.274Z,7.00
2018-07-14T05:07:56.391Z,7.10
2018-07-14T05:12:58.486Z,7.00
2018-07-14T05:18:00.590Z,6.37
2018-07-14T05:23:02.701Z,6.20
2018-07-14T05:28:04.910Z,6.50
2018-07-14T05:33:07.019Z,5.60
2018-07-14T05:38:09.145Z,6.37
2018-07-14T05:43:11.269Z,6.20
2018-07-14T05:48:13.383Z,5.63
2018-07-14T05:53:15.506Z,6.10
2018-07-14T05:58:17.733Z,5.60
2018-07-14T06:03:19.850Z,5.83
2018-07-14T06:08:22.006Z,6.40
2018-07-14T06:13:24.133Z,5.80
2018-07-14T06:18:27.303Z,6.80
2018-07-14T06:23:29.422Z,6.03
2018-07-14T06:28:31.539Z,5.80
2018-07-14T06:33:33.657Z,5.93
2018-07-14T06:38:35.828Z,6.60
2018-07-14T06:43:37.989Z,5.93
2018-07-14T06:48:40.098Z,6.50
2018-07-14T06:53:42.206Z,6.30
2018-07-14T06:58:44.301Z,6.23
2018-07-14T07:03:46.588Z,6.30
2018-07-14T07:08:48.689Z,6.50
2018-07-14T07:13:50.881Z,6.33
2018-07-14T07:18:52.946Z,6.50
2018-07-14T07:23:55.075Z,6.30
2018-07-14T07:28:57.183Z,6.53
2018-07-14T07:33:59.359Z,6.00
2018-07-14T07:39:01.597Z,6.50
2018-07-14T07:44:03.747Z,6.07
2018-07-14T07:49:05.882Z,6.10
2018-07-14T07:54:07.985Z,5.80
2018-07-14T07:59:10.189Z,5.87
2018-07-14T08:04:12.216Z,5.60
2018-07-14T08:09:14.329Z,5.53
2018-07-14T08:14:16.442Z,5.47
2018-07-14T08:19:18.606Z,5.47
2018-07-14T08:24:20.717Z,6.00
2018-07-14T08:29:22.873Z,5.13
2018-07-14T08:34:25.001Z,6.00
2018-07-14T08:39:27.133Z,5.67
2018-07-14T08:44:29.235Z,5.57
2018-07-14T08:49:31.365Z,5.20
2018-07-14T08:54:33.516Z,5.17
2018-07-14T08:59:35.624Z,5.73
2018-07-14T09:04:37.725Z,5.93
2018-07-14T09:09:39.866Z,5.80
2018-07-14T09:14:41.981Z,5.53
2018-07-14T09:19:44.085Z,6.03
2018-07-14T09:24:46.290Z,5.93
2018-07-14T09:29:48.412Z,6.30
2018-07-14T09:34:50.561Z,5.90
2018-07-14T09:39:52.685Z,5.43
2018-07-14T09:44:54.801Z,5.40
2018-07-14T09:49:56.911Z,5.40
2018-07-14T09:54:59.065Z,5.20
2018-07-14T10:00:01.227Z,6.00
2018-07-14T10:05:03.394Z,5.80
2018-07-14T10:10:05.761Z,6.17
2018-07-14T10:15:08.086Z,5.73
2018-07-14T10:20:10.182Z,5.20
2018-07-14T10:25:12.459Z,4.40
2018-07-14T10:30:14.449Z,4.67
2018-07-14T10:35:16.574Z,5.17
2018-07-14T10:40:18.762Z,4.90
2018-07-14T10:45:20.877Z,6.30
2018-07-14T10:50:22.991Z,5.23
2018-07-14T10:55:25.098Z,5.00
2018-07-14T11:00:27.225Z,5.30
2018-07-14T11:05:29.359Z,5.30
2018-07-14T11:10:31.482Z,5.10
2018-07-14T11:15:33.619Z,5.53
2018-07-14T11:20:35.792Z,5.60
2018-07-14T11:25:37.906Z,6.27
2018-07-14T11:30:40.038Z,5.80
2018-07-14T11:35:42.165Z,5.67
2018-07-14T11:40:44.318Z,5.93
2018-07-14T11:45:46.458Z,5.70
2018-07-14T11:50:48.578Z,5.63
2018-07-14T11:55:50.778Z,5.57
2018-07-14T12:00:52.991Z,5.07
2018-07-14T12:05:55.110Z,5.50
2018-07-14T12:10:57.234Z,5.43
2018-07-14T12:15:59.361Z,5.27
2018-07-14T12:21:01.503Z,5.63
2018-07-14T12:26:03.617Z,5.10
2018-07-14T12:31:05.749Z,5.23
2018-07-14T12:36:07.890Z,5.40
2018-07-14T12:41:10.020Z,5.40
2018-07-14T12:46:12.169Z,5.60
2018-07-14T12:51:14.289Z,5.33
2018-07-14T12:56:16.465Z,5.67
2018-07-14T13:01:18.666Z,5.60
2018-07-14T13:06:20.947Z,4.97
2018-07-14T13:11:23.167Z,4.83
2018-07-14T13:16:25.337Z,4.67
2018-07-14T13:21:27.501Z,4.97
2018-07-14T13:26:29.771Z,5.30
2018-07-14T13:31:31.921Z,5.00
2018-07-14T13:36:34.079Z,4.80
2018-07-14T13:41:36.278Z,4.83
2018-07-14T13:46:38.437Z,5.43
2018-07-14T13:51:40.595Z,5.03
2018-07-14T13:56:42.730Z,4.70
2018-07-14T14:01:44.881Z,4.90
2018-07-14T14:06:47.070Z,5.10
2018-07-14T14:11:49.481Z,4.80
2018-07-14T14:16:51.613Z,5.23
2018-07-14T14:21:53.734Z,5.10
2018-07-14T14:26:55.864Z,4.80
2018-07-14T14:31:57.978Z,5.00
2018-07-14T14:37:00.122Z,4.83
2018-07-14T14:42:02.242Z,4.87
2018-07-14T14:47:04.390Z,5.10
2018-07-14T14:52:06.657Z,4.63
2018-07-14T14:57:08.797Z,5.30
2018-07-14T15:02:10.899Z,4.83
2018-07-14T15:07:13.033Z,4.97
2018-07-14T15:12:15.141Z,4.37
2018-07-14T15:17:17.262Z,4.30
2018-07-14T15:22:19.386Z,4.70
2018-07-14T15:27:21.506Z,4.73
2018-07-14T15:32:23.700Z,4.83
2018-07-14T15:37:25.794Z,4.77
2018-07-14T15:42:27.925Z,4.70
2018-07-14T15:47:30.066Z,4.20
2018-07-14T15:52:32.223Z,4.80
2018-07-14T15:57:34.348Z,4.17
2018-07-14T16:02:36.529Z,4.10
2018-07-14T16:07:38.644Z,4.33
2018-07-14T16:12:40.786Z,4.30
2018-07-14T16:17:42.917Z,4.70
2018-07-14T16:22:45.034Z,4.40
2018-07-14T16:27:47.151Z,4.63
2018-07-14T16:32:49.282Z,4.30
2018-07-14T16:37:51.497Z,4.83
2018-07-14T16:42:53.646Z,4.37
2018-07-14T16:47:55.786Z,4.70
2018-07-14T16:52:57.913Z,4.37
2018-07-14T16:58:00.130Z,5.10
2018-07-14T17:03:02.241Z,4.77
2018-07-14T17:08:04.367Z,4.90
2018-07-14T17:13:06.495Z,5.03
2018-07-14T17:18:08.598Z,5.63
2018-07-14T17:23:10.701Z,5.70
2018-07-14T17:28:12.830Z,5.90
2018-07-14T17:33:14.950Z,5.30
2018-07-14T17:38:17.072Z,5.27
2018-07-14T17:43:19.194Z,5.17
2018-07-14T17:48:21.328Z,4.53
2018-07-14T17:53:23.466Z,5.17
2018-07-14T17:58:25.590Z,5.30
2018-07-14T18:03:27.717Z,5.33
2018-07-14T18:08:29.897Z,4.40
2018-07-14T18:13:32.077Z,5.10
2018-07-14T18:18:34.193Z,5.10
2018-07-14T18:23:36.350Z,5.23
2018-07-14T18:28:38.450Z,4.23
2018-07-14T18:33:40.566Z,5.17
2018-07-14T18:38:42.706Z,4.67
2018-07-14T18:43:44.869Z,5.10
2018-07-14T18:48:46.990Z,5.37
2018-07-14T18:53:49.106Z,5.10
2018-07-14T18:58:51.217Z,5.27
2018-07-14T19:03:53.337Z,6.00
2018-07-14T19:08:55.455Z,5.87
2018-07-14T19:13:57.556Z,7.10
2018-07-14T19:18:59.677Z,6.40
2018-07-14T19:24:01.943Z,6.57
2018-07-14T19:29:04.117Z,6.37
2018-07-14T19:34:06.249Z,5.60
2018-07-14T19:39:08.401Z,6.10
2018-07-14T19:44:10.493Z,7.87
2018-07-14T19:49:12.591Z,6.43
2018-07-14T19:54:14.726Z,7.20
2018-07-14T19:59:16.913Z,7.40
2018-07-14T20:04:19.025Z,7.00
2018-07-14T20:09:21.142Z,7.13
2018-07-14T20:14:23.289Z,7.10
2018-07-14T20:19:25.463Z,7.50
2018-07-14T20:24:27.602Z,7.20
2018-07-14T20:29:29.710Z,7.00
2018-07-14T20:34:31.852Z,7.20
2018-07-14T20:39:33.979Z,7.03
2018-07-14T20:44:36.125Z,7.40
2018-07-14T20:49:38.238Z,6.50
2018-07-14T20:54:41.141Z,6.40
2018-07-14T20:59:43.320Z,6.50
2018-07-14T21:04:45.461Z,6.10
2018-07-14T21:09:47.575Z,7.00
2018-07-14T21:14:49.698Z,7.40
2018-07-14T21:19:51.821Z,7.50
2018-07-14T21:24:53.958Z,7.43
2018-07-14T21:29:56.066Z,7.20
2018-07-14T21:34:58.169Z,6.90
2018-07-14T21:40:00.281Z,6.80
2018-07-14T21:45:02.425Z,7.20
2018-07-14T21:50:04.649Z,7.30
2018-07-14T21:55:06.773Z,6.97
2018-07-14T22:00:14.874Z,7.03
2018-07-14T22:05:17.005Z,6.60
2018-07-14T22:10:19.354Z,7.43
2018-07-14T22:15:22.354Z,7.80
2018-07-14T22:20:24.505Z,7.07
2018-07-14T22:25:26.637Z,7.10
2018-07-14T22:30:28.761Z,6.90
2018-07-14T22:35:30.882Z,6.80
2018-07-14T22:40:33.097Z,6.50
2018-07-14T22:45:35.195Z,6.50
2018-07-14T22:50:37.345Z,7.10
2018-07-14T22:55:39.522Z,6.70
2018-07-14T23:00:41.621Z,6.63
2018-07-14T23:05:43.735Z,7.03
2018-07-14T23:10:45.833Z,7.40
2018-07-14T23:15:48.069Z,6.63
2018-07-14T23:20:50.201Z,7.03
2018-07-14T23:25:52.315Z,7.23
2018-07-14T23:30:54.438Z,6.90
2018-07-14T23:35:56.557Z,6.80
2018-07-14T23:40:58.671Z,7.43
2018-07-14T23:46:00.778Z,7.93
2018-07-14T23:51:02.900Z,8.23
2018-07-14T23:56:05.057Z,8.10
